sensor_id;sensor_type;location;lat;lon;timestamp;P1;durP1;ratioP1;P2;durP2;ratioP2
545;SDS011;259;53.304;9.816;2023-09-30T00:02:11;1.93;;;1.67;;
545;SDS011;259;53.304;9.816;2023-09-30T00:04:37;2.40;;;2.00;;
545;SDS011;259;53.304;9.816;2023-09-30T00:07:04;3.83;;;2.47;;
545;SDS011;259;53.304;9.816;2023-09-30T00:09:30;2.17;;;1.80;;
545;SDS011;259;53.304;9.816;2023-09-30T00:11:56;2.20;;;2.00;;
545;SDS011;259;53.304;9.816;2023-09-30T00:14:21;2.93;;;1.77;;
545;SDS011;259;53.304;9.816;2023-09-30T00:16:47;2.13;;;1.80;;
545;SDS011;259;53.304;9.816;2023-09-30T00:19:13;2.20;;;2.00;;
545;SDS011;259;53.304;9.816;2023-09-30T00:21:38;2.50;;;2.30;;
545;SDS011;259;53.304;9.816;2023-09-30T00:24:04;2.40;;;1.60;;
545;SDS011;259;53.304;9.816;2023-09-30T00:26:30;2.50;;;1.63;;
545;SDS011;259;53.304;9.816;2023-09-30T00:28:56;2.20;;;1.80;;
545;SDS011;259;53.304;9.816;2023-09-30T00:31:22;2.37;;;2.17;;
545;SDS011;259;53.304;9.816;2023-09-30T00:33:47;4.37;;;2.20;;
545;SDS011;259;53.304;9.816;2023-09-30T00:36:13;2.10;;;1.87;;
545;SDS011;259;53.304;9.816;2023-09-30T00:38:39;2.43;;;2.20;;
545;SDS011;259;53.304;9.816;2023-09-30T00:41:05;2.60;;;2.40;;
545;SDS011;259;53.304;9.816;2023-09-30T00:43:32;3.03;;;1.80;;
545;SDS011;259;53.304;9.816;2023-09-30T00:46:02;2.07;;;1.87;;
545;SDS011;259;53.304;9.816;2023-09-30T00:48:58;2.93;;;2.20;;
545;SDS011;259;53.304;9.816;2023-09-30T00:51:25;2.40;;;1.67;;
545;SDS011;259;53.304;9.816;2023-09-30T00:53:51;2.67;;;2.20;;
545;SDS011;259;53.304;9.816;2023-09-30T00:56:18;3.17;;;2.23;;
545;SDS011;259;53.304;9.816;2023-09-30T00:58:48;2.80;;;2.27;;
545;SDS011;259;53.304;9.816;2023-09-30T01:01:16;2.63;;;1.80;;
545;SDS011;259;53.304;9.816;2023-09-30T01:03:43;3.20;;;1.90;;
545;SDS011;259;53.304;9.816;2023-09-30T01:06:11;2.90;;;1.97;;
545;SDS011;259;53.304;9.816;2023-09-30T01:08:37;2.33;;;1.97;;
545;SDS011;259;53.304;9.816;2023-09-30T01:11:03;2.13;;;1.93;;
545;SDS011;259;53.304;9.816;2023-09-30T01:13:35;4.50;;;2.27;;
545;SDS011;259;53.304;9.816;2023-09-30T01:16:03;1.80;;;1.50;;
545;SDS011;259;53.304;9.816;2023-09-30T01:18:37;2.57;;;2.03;;
545;SDS011;259;53.304;9.816;2023-09-30T01:21:05;1.97;;;1.70;;
545;SDS011;259;53.304;9.816;2023-09-30T01:23:32;3.30;;;2.07;;
545;SDS011;259;53.304;9.816;2023-09-30T01:26:02;3.63;;;2.50;;
545;SDS011;259;53.304;9.816;2023-09-30T01:28:29;2.67;;;2.10;;
545;SDS011;259;53.304;9.816;2023-09-30T01:30:56;2.17;;;1.90;;
545;SDS011;259;53.304;9.816;2023-09-30T01:33:22;2.30;;;1.80;;
545;SDS011;259;53.304;9.816;2023-09-30T01:35:48;2.07;;;1.80;;
545;SDS011;259;53.304;9.816;2023-09-30T01:38:14;2.70;;;1.90;;
545;SDS011;259;53.304;9.816;2023-09-30T01:40:39;2.50;;;2.07;;
545;SDS011;259;53.304;9.816;2023-09-30T01:43:05;3.00;;;2.50;;
545;SDS011;259;53.304;9.816;2023-09-30T01:45:31;3.03;;;2.37;;
545;SDS011;259;53.304;9.816;2023-09-30T01:47:56;3.07;;;1.93;;
545;SDS011;259;53.304;9.816;2023-09-30T01:50:22;4.03;;;2.60;;
545;SDS011;259;53.304;9.816;2023-09-30T01:52:48;1.90;;;1.70;;
545;SDS011;259;53.304;9.816;2023-09-30T01:55:14;2.40;;;1.90;;
545;SDS011;259;53.304;9.816;2023-09-30T01:57:39;1.60;;;1.50;;
545;SDS011;259;53.304;9.816;2023-09-30T02:00:05;2.70;;;1.60;;
545;SDS011;259;53.304;9.816;2023-09-30T02:02:34;3.37;;;2.23;;
545;SDS011;259;53.304;9.816;2023-09-30T02:05:01;2.90;;;2.50;;
545;SDS011;259;53.304;9.816;2023-09-30T02:07:27;2.20;;;1.77;;
545;SDS011;259;53.304;9.816;2023-09-30T02:09:54;3.43;;;2.23;;
545;SDS011;259;53.304;9.816;2023-09-30T02:12:20;4.37;;;2.33;;
545;SDS011;259;53.304;9.816;2023-09-30T02:14:46;2.50;;;1.90;;
545;SDS011;259;53.304;9.816;2023-09-30T02:17:12;2.50;;;1.97;;
545;SDS011;259;53.304;9.816;2023-09-30T02:19:38;4.87;;;2.10;;
545;SDS011;259;53.304;9.816;2023-09-30T02:22:05;2.43;;;2.10;;
545;SDS011;259;53.304;9.816;2023-09-30T02:24:34;3.00;;;1.93;;
545;SDS011;259;53.304;9.816;2023-09-30T02:27:00;3.23;;;2.23;;
545;SDS011;259;53.304;9.816;2023-09-30T02:29:25;3.63;;;2.60;;
545;SDS011;259;53.304;9.816;2023-09-30T02:31:51;2.00;;;1.70;;
545;SDS011;259;53.304;9.816;2023-09-30T02:34:19;1.90;;;1.67;;
545;SDS011;259;53.304;9.816;2023-09-30T02:36:45;3.60;;;2.50;;
545;SDS011;259;53.304;9.816;2023-09-30T02:39:11;2.10;;;1.90;;
545;SDS011;259;53.304;9.816;2023-09-30T02:41:36;2.63;;;1.93;;
545;SDS011;259;53.304;9.816;2023-09-30T02:44:03;2.27;;;1.97;;
545;SDS011;259;53.304;9.816;2023-09-30T02:46:29;3.20;;;1.90;;
545;SDS011;259;53.304;9.816;2023-09-30T02:48:55;3.73;;;2.17;;
545;SDS011;259;53.304;9.816;2023-09-30T02:51:20;3.03;;;2.30;;
545;SDS011;259;53.304;9.816;2023-09-30T02:53:46;2.33;;;2.13;;
545;SDS011;259;53.304;9.816;2023-09-30T02:56:13;2.13;;;1.70;;
545;SDS011;259;53.304;9.816;2023-09-30T02:58:39;5.33;;;2.40;;
545;SDS011;259;53.304;9.816;2023-09-30T03:01:05;2.47;;;1.80;;
545;SDS011;259;53.304;9.816;2023-09-30T03:03:32;2.20;;;1.90;;
545;SDS011;259;53.304;9.816;2023-09-30T03:05:58;2.60;;;2.10;;
545;SDS011;259;53.304;9.816;2023-09-30T03:08:25;3.00;;;2.00;;
545;SDS011;259;53.304;9.816;2023-09-30T03:10:51;2.03;;;1.80;;
545;SDS011;259;53.304;9.816;2023-09-30T03:13:17;2.57;;;1.73;;
545;SDS011;259;53.304;9.816;2023-09-30T03:15:46;1.93;;;1.73;;
545;SDS011;259;53.304;9.816;2023-09-30T03:18:14;2.23;;;1.73;;
545;SDS011;259;53.304;9.816;2023-09-30T03:20:42;3.70;;;2.23;;
545;SDS011;259;53.304;9.816;2023-09-30T03:23:08;2.67;;;2.00;;
545;SDS011;259;53.304;9.816;2023-09-30T03:25:35;3.47;;;2.17;;
545;SDS011;259;53.304;9.816;2023-09-30T03:28:01;2.00;;;1.80;;
545;SDS011;259;53.304;9.816;2023-09-30T03:30:28;3.37;;;2.23;;
545;SDS011;259;53.304;9.816;2023-09-30T03:32:54;1.63;;;1.53;;
545;SDS011;259;53.304;9.816;2023-09-30T03:35:20;3.20;;;2.00;;
545;SDS011;259;53.304;9.816;2023-09-30T03:37:46;4.30;;;2.27;;
545;SDS011;259;53.304;9.816;2023-09-30T03:40:13;2.80;;;2.00;;
545;SDS011;259;53.304;9.816;2023-09-30T03:42:46;4.03;;;1.87;;
545;SDS011;259;53.304;9.816;2023-09-30T03:45:14;3.07;;;2.60;;
545;SDS011;259;53.304;9.816;2023-09-30T03:47:40;2.40;;;2.20;;
545;SDS011;259;53.304;9.816;2023-09-30T03:50:07;3.37;;;2.50;;
545;SDS011;259;53.304;9.816;2023-09-30T03:52:40;2.30;;;2.10;;
545;SDS011;259;53.304;9.816;2023-09-30T03:55:13;3.00;;;2.07;;
545;SDS011;259;53.304;9.816;2023-09-30T03:57:40;2.53;;;2.20;;
545;SDS011;259;53.304;9.816;2023-09-30T04:00:06;2.23;;;1.60;;
545;SDS011;259;53.304;9.816;2023-09-30T04:02:40;3.50;;;2.40;;
545;SDS011;259;53.304;9.816;2023-09-30T04:05:07;2.20;;;1.93;;
545;SDS011;259;53.304;9.816;2023-09-30T04:07:36;1.83;;;1.73;;
545;SDS011;259;53.304;9.816;2023-09-30T04:10:02;2.53;;;1.60;;
545;SDS011;259;53.304;9.816;2023-09-30T04:12:29;2.23;;;2.03;;
545;SDS011;259;53.304;9.816;2023-09-30T04:14:57;2.80;;;1.80;;
545;SDS011;259;53.304;9.816;2023-09-30T04:17:23;3.27;;;1.63;;
545;SDS011;259;53.304;9.816;2023-09-30T04:19:49;2.50;;;2.00;;
545;SDS011;259;53.304;9.816;2023-09-30T04:22:17;2.63;;;1.83;;
545;SDS011;259;53.304;9.816;2023-09-30T04:24:46;2.90;;;2.43;;
545;SDS011;259;53.304;9.816;2023-09-30T04:27:14;3.97;;;2.17;;
545;SDS011;259;53.304;9.816;2023-09-30T04:29:41;2.73;;;2.37;;
545;SDS011;259;53.304;9.816;2023-09-30T04:32:07;2.80;;;2.20;;
545;SDS011;259;53.304;9.816;2023-09-30T04:34:33;2.00;;;1.80;;
545;SDS011;259;53.304;9.816;2023-09-30T04:36:58;3.10;;;2.17;;
545;SDS011;259;53.304;9.816;2023-09-30T04:39:24;2.83;;;2.20;;
545;SDS011;259;53.304;9.816;2023-09-30T04:41:50;3.00;;;2.40;;
545;SDS011;259;53.304;9.816;2023-09-30T04:44:16;2.80;;;2.30;;
545;SDS011;259;53.304;9.816;2023-09-30T04:46:42;3.37;;;2.03;;
545;SDS011;259;53.304;9.816;2023-09-30T04:49:11;3.30;;;2.07;;
545;SDS011;259;53.304;9.816;2023-09-30T04:51:39;2.30;;;2.00;;
545;SDS011;259;53.304;9.816;2023-09-30T04:54:05;3.20;;;2.70;;
545;SDS011;259;53.304;9.816;2023-09-30T04:56:34;3.10;;;2.20;;
545;SDS011;259;53.304;9.816;2023-09-30T04:59:00;4.93;;;2.40;;
545;SDS011;259;53.304;9.816;2023-09-30T05:01:27;2.23;;;1.87;;
545;SDS011;259;53.304;9.816;2023-09-30T05:03:53;3.97;;;2.00;;
545;SDS011;259;53.304;9.816;2023-09-30T05:06:19;3.30;;;1.90;;
545;SDS011;259;53.304;9.816;2023-09-30T05:08:46;2.60;;;2.30;;
545;SDS011;259;53.304;9.816;2023-09-30T05:11:12;2.87;;;1.83;;
545;SDS011;259;53.304;9.816;2023-09-30T05:13:39;2.23;;;1.67;;
545;SDS011;259;53.304;9.816;2023-09-30T05:16:04;3.90;;;2.10;;
545;SDS011;259;53.304;9.816;2023-09-30T05:18:32;3.47;;;2.13;;
545;SDS011;259;53.304;9.816;2023-09-30T05:20:58;3.30;;;2.83;;
545;SDS011;259;53.304;9.816;2023-09-30T05:23:24;2.50;;;2.00;;
545;SDS011;259;53.304;9.816;2023-09-30T05:25:50;1.70;;;1.60;;
545;SDS011;259;53.304;9.816;2023-09-30T05:28:16;2.67;;;1.90;;
545;SDS011;259;53.304;9.816;2023-09-30T05:30:42;2.40;;;1.93;;
545;SDS011;259;53.304;9.816;2023-09-30T05:33:08;3.30;;;2.33;;
545;SDS011;259;53.304;9.816;2023-09-30T05:35:39;3.40;;;2.10;;
545;SDS011;259;53.304;9.816;2023-09-30T05:38:06;3.43;;;2.30;;
545;SDS011;259;53.304;9.816;2023-09-30T05:40:33;2.93;;;2.47;;
545;SDS011;259;53.304;9.816;2023-09-30T05:42:59;2.90;;;2.30;;
545;SDS011;259;53.304;9.816;2023-09-30T05:45:25;1.83;;;1.70;;
545;SDS011;259;53.304;9.816;2023-09-30T05:47:55;2.97;;;1.90;;
545;SDS011;259;53.304;9.816;2023-09-30T05:50:22;2.17;;;1.97;;
545;SDS011;259;53.304;9.816;2023-09-30T05:52:53;2.43;;;2.23;;
545;SDS011;259;53.304;9.816;2023-09-30T05:55:20;3.00;;;1.97;;
545;SDS011;259;53.304;9.816;2023-09-30T05:57:49;2.30;;;2.07;;
545;SDS011;259;53.304;9.816;2023-09-30T06:00:17;2.20;;;2.00;;
545;SDS011;259;53.304;9.816;2023-09-30T06:03:03;1.80;;;1.70;;
545;SDS011;259;53.304;9.816;2023-09-30T06:05:32;3.63;;;2.33;;
545;SDS011;259;53.304;9.816;2023-09-30T06:07:59;2.80;;;1.87;;
545;SDS011;259;53.304;9.816;2023-09-30T06:10:30;2.73;;;1.90;;
545;SDS011;259;53.304;9.816;2023-09-30T06:12:56;2.03;;;1.70;;
545;SDS011;259;53.304;9.816;2023-09-30T06:15:23;2.60;;;1.80;;
545;SDS011;259;53.304;9.816;2023-09-30T06:17:53;2.47;;;2.27;;
545;SDS011;259;53.304;9.816;2023-09-30T06:20:22;2.63;;;2.10;;
545;SDS011;259;53.304;9.816;2023-09-30T06:22:51;5.17;;;1.97;;
545;SDS011;259;53.304;9.816;2023-09-30T06:25:19;2.90;;;1.90;;
545;SDS011;259;53.304;9.816;2023-09-30T06:27:47;4.87;;;2.77;;
545;SDS011;259;53.304;9.816;2023-09-30T06:30:16;1.80;;;1.70;;
545;SDS011;259;53.304;9.816;2023-09-30T06:32:43;2.10;;;1.80;;
545;SDS011;259;53.304;9.816;2023-09-30T06:35:09;3.10;;;2.33;;
545;SDS011;259;53.304;9.816;2023-09-30T06:37:36;3.47;;;2.20;;
545;SDS011;259;53.304;9.816;2023-09-30T06:40:03;2.50;;;2.00;;
545;SDS011;259;53.304;9.816;2023-09-30T06:42:32;2.70;;;1.80;;
545;SDS011;259;53.304;9.816;2023-09-30T06:45:02;3.53;;;2.00;;
545;SDS011;259;53.304;9.816;2023-09-30T06:47:34;2.70;;;2.10;;
545;SDS011;259;53.304;9.816;2023-09-30T06:50:05;2.67;;;2.13;;
545;SDS011;259;53.304;9.816;2023-09-30T06:52:41;2.53;;;2.10;;
545;SDS011;259;53.304;9.816;2023-09-30T06:55:10;2.07;;;1.60;;
545;SDS011;259;53.304;9.816;2023-09-30T06:57:39;3.20;;;2.10;;
545;SDS011;259;53.304;9.816;2023-09-30T07:00:11;2.13;;;1.93;;
545;SDS011;259;53.304;9.816;2023-09-30T07:02:39;2.37;;;2.17;;
545;SDS011;259;53.304;9.816;2023-09-30T07:05:09;3.00;;;2.20;;
545;SDS011;259;53.304;9.816;2023-09-30T07:07:37;4.77;;;2.53;;
545;SDS011;259;53.304;9.816;2023-09-30T07:10:05;3.07;;;2.30;;
545;SDS011;259;53.304;9.816;2023-09-30T07:12:31;3.60;;;1.80;;
545;SDS011;259;53.304;9.816;2023-09-30T07:15:00;2.97;;;2.70;;
545;SDS011;259;53.304;9.816;2023-09-30T07:17:29;2.37;;;1.97;;
545;SDS011;259;53.304;9.816;2023-09-30T07:19:55;2.50;;;1.70;;
545;SDS011;259;53.304;9.816;2023-09-30T07:22:21;2.50;;;2.23;;
545;SDS011;259;53.304;9.816;2023-09-30T07:24:47;2.00;;;1.80;;
545;SDS011;259;53.304;9.816;2023-09-30T07:27:13;2.00;;;1.60;;
545;SDS011;259;53.304;9.816;2023-09-30T07:29:39;2.63;;;2.00;;
545;SDS011;259;53.304;9.816;2023-09-30T07:32:06;3.10;;;1.90;;
545;SDS011;259;53.304;9.816;2023-09-30T07:34:33;2.40;;;1.93;;
545;SDS011;259;53.304;9.816;2023-09-30T07:36:59;2.07;;;1.73;;
545;SDS011;259;53.304;9.816;2023-09-30T07:39:24;2.70;;;1.90;;
545;SDS011;259;53.304;9.816;2023-09-30T07:41:50;3.27;;;2.30;;
545;SDS011;259;53.304;9.816;2023-09-30T07:44:16;2.20;;;1.93;;
545;SDS011;259;53.304;9.816;2023-09-30T07:46:42;2.63;;;2.20;;
545;SDS011;259;53.304;9.816;2023-09-30T07:49:11;2.40;;;1.80;;
545;SDS011;259;53.304;9.816;2023-09-30T07:51:36;4.23;;;2.30;;
545;SDS011;259;53.304;9.816;2023-09-30T07:54:04;3.60;;;2.07;;
545;SDS011;259;53.304;9.816;2023-09-30T07:56:30;3.20;;;2.40;;
545;SDS011;259;53.304;9.816;2023-09-30T07:58:56;2.80;;;1.93;;
545;SDS011;259;53.304;9.816;2023-09-30T08:01:22;3.00;;;2.70;;
545;SDS011;259;53.304;9.816;2023-09-30T08:03:47;6.60;;;3.47;;
545;SDS011;259;53.304;9.816;2023-09-30T08:06:14;7.20;;;5.20;;
545;SDS011;259;53.304;9.816;2023-09-30T08:08:39;7.80;;;4.50;;
545;SDS011;259;53.304;9.816;2023-09-30T08:11:05;8.03;;;4.43;;
545;SDS011;259;53.304;9.816;2023-09-30T08:13:34;4.50;;;4.10;;
545;SDS011;259;53.304;9.816;2023-09-30T08:16:00;5.57;;;4.00;;
545;SDS011;259;53.304;9.816;2023-09-30T08:18:25;7.07;;;4.30;;
545;SDS011;259;53.304;9.816;2023-09-30T08:20:51;5.63;;;4.30;;
545;SDS011;259;53.304;9.816;2023-09-30T08:23:17;6.37;;;3.80;;
545;SDS011;259;53.304;9.816;2023-09-30T08:25:43;5.00;;;4.43;;
545;SDS011;259;53.304;9.816;2023-09-30T08:28:09;6.80;;;4.07;;
545;SDS011;259;53.304;9.816;2023-09-30T08:30:35;8.60;;;3.80;;
545;SDS011;259;53.304;9.816;2023-09-30T08:33:01;5.03;;;4.43;;
545;SDS011;259;53.304;9.816;2023-09-30T08:35:35;3.93;;;3.20;;
545;SDS011;259;53.304;9.816;2023-09-30T08:38:04;5.73;;;3.37;;
545;SDS011;259;53.304;9.816;2023-09-30T08:40:30;5.10;;;4.10;;
545;SDS011;259;53.304;9.816;2023-09-30T08:42:56;3.97;;;3.47;;
545;SDS011;259;53.304;9.816;2023-09-30T08:45:22;6.47;;;3.70;;
545;SDS011;259;53.304;9.816;2023-09-30T08:47:48;4.60;;;3.03;;
545;SDS011;259;53.304;9.816;2023-09-30T08:50:16;7.00;;;4.10;;
545;SDS011;259;53.304;9.816;2023-09-30T08:52:43;7.00;;;3.60;;
545;SDS011;259;53.304;9.816;2023-09-30T08:55:10;4.70;;;3.47;;
545;SDS011;259;53.304;9.816;2023-09-30T08:57:37;8.63;;;4.60;;
545;SDS011;259;53.304;9.816;2023-09-30T09:00:05;19.10;;;6.53;;
545;SDS011;259;53.304;9.816;2023-09-30T09:02:36;12.37;;;5.10;;
545;SDS011;259;53.304;9.816;2023-09-30T09:05:02;6.83;;;4.13;;
545;SDS011;259;53.304;9.816;2023-09-30T09:07:28;11.87;;;5.47;;
545;SDS011;259;53.304;9.816;2023-09-30T09:10:05;6.40;;;4.50;;
545;SDS011;259;53.304;9.816;2023-09-30T09:12:34;11.03;;;5.57;;
545;SDS011;259;53.304;9.816;2023-09-30T09:15:02;15.73;;;6.57;;
545;SDS011;259;53.304;9.816;2023-09-30T09:17:41;8.73;;;5.70;;
545;SDS011;259;53.304;9.816;2023-09-30T09:20:10;14.20;;;6.00;;
545;SDS011;259;53.304;9.816;2023-09-30T09:22:42;10.17;;;5.67;;
545;SDS011;259;53.304;9.816;2023-09-30T09:25:09;10.03;;;4.83;;
545;SDS011;259;53.304;9.816;2023-09-30T09:27:36;8.53;;;5.30;;
545;SDS011;259;53.304;9.816;2023-09-30T09:35:40;6.37;;;4.30;;
545;SDS011;259;53.304;9.816;2023-09-30T09:38:12;5.47;;;4.03;;
545;SDS011;259;53.304;9.816;2023-09-30T09:40:38;7.23;;;4.00;;
545;SDS011;259;53.304;9.816;2023-09-30T09:43:05;5.50;;;3.57;;
545;SDS011;259;53.304;9.816;2023-09-30T09:45:36;4.20;;;2.73;;
545;SDS011;259;53.304;9.816;2023-09-30T09:48:06;4.23;;;3.40;;
545;SDS011;259;53.304;9.816;2023-09-30T09:50:32;4.43;;;3.33;;
545;SDS011;259;53.304;9.816;2023-09-30T09:53:01;5.57;;;2.83;;
545;SDS011;259;53.304;9.816;2023-09-30T09:55:29;4.30;;;3.00;;
545;SDS011;259;53.304;9.816;2023-09-30T09:57:55;6.00;;;4.10;;
545;SDS011;259;53.304;9.816;2023-09-30T10:00:24;4.50;;;3.37;;
545;SDS011;259;53.304;9.816;2023-09-30T10:02:51;5.50;;;3.90;;
545;SDS011;259;53.304;9.816;2023-09-30T10:05:18;7.93;;;4.20;;
545;SDS011;259;53.304;9.816;2023-09-30T10:07:56;8.10;;;3.50;;
545;SDS011;259;53.304;9.816;2023-09-30T10:10:27;6.80;;;3.50;;
545;SDS011;259;53.304;9.816;2023-09-30T10:12:53;7.03;;;3.63;;
545;SDS011;259;53.304;9.816;2023-09-30T10:20:29;4.83;;;3.30;;
545;SDS011;259;53.304;9.816;2023-09-30T10:25:50;5.70;;;3.50;;
545;SDS011;259;53.304;9.816;2023-09-30T10:31:17;5.63;;;3.00;;
545;SDS011;259;53.304;9.816;2023-09-30T10:36:46;8.87;;;3.53;;
545;SDS011;259;53.304;9.816;2023-09-30T10:39:12;4.57;;;2.90;;
545;SDS011;259;53.304;9.816;2023-09-30T10:49:56;10.20;;;5.43;;
545;SDS011;259;53.304;9.816;2023-09-30T10:52:22;10.50;;;6.00;;
545;SDS011;259;53.304;9.816;2023-09-30T10:54:50;7.10;;;5.87;;
545;SDS011;259;53.304;9.816;2023-09-30T10:57:28;13.77;;;6.80;;
545;SDS011;259;53.304;9.816;2023-09-30T11:00:12;7.90;;;5.83;;
545;SDS011;259;53.304;9.816;2023-09-30T11:02:50;8.00;;;5.93;;
545;SDS011;259;53.304;9.816;2023-09-30T11:05:18;8.10;;;5.20;;
545;SDS011;259;53.304;9.816;2023-09-30T11:07:47;10.00;;;5.50;;
545;SDS011;259;53.304;9.816;2023-09-30T11:10:17;9.23;;;6.20;;
545;SDS011;259;53.304;9.816;2023-09-30T11:12:56;6.10;;;5.33;;
545;SDS011;259;53.304;9.816;2023-09-30T11:15:23;7.83;;;6.43;;
545;SDS011;259;53.304;9.816;2023-09-30T11:17:50;10.33;;;6.17;;
545;SDS011;259;53.304;9.816;2023-09-30T11:20:18;7.00;;;5.70;;
545;SDS011;259;53.304;9.816;2023-09-30T11:22:46;9.10;;;5.53;;
545;SDS011;259;53.304;9.816;2023-09-30T11:25:15;6.33;;;5.70;;
545;SDS011;259;53.304;9.816;2023-09-30T11:27:42;5.77;;;4.90;;
545;SDS011;259;53.304;9.816;2023-09-30T11:30:09;5.27;;;4.80;;
545;SDS011;259;53.304;9.816;2023-09-30T11:32:37;6.57;;;5.20;;
545;SDS011;259;53.304;9.816;2023-09-30T11:35:04;5.67;;;5.17;;
545;SDS011;259;53.304;9.816;2023-09-30T11:37:47;7.23;;;5.63;;
545;SDS011;259;53.304;9.816;2023-09-30T11:40:13;6.57;;;4.70;;
545;SDS011;259;53.304;9.816;2023-09-30T11:42:39;6.13;;;5.17;;
545;SDS011;259;53.304;9.816;2023-09-30T11:45:18;6.23;;;5.27;;
545;SDS011;259;53.304;9.816;2023-09-30T11:47:45;5.53;;;4.83;;
545;SDS011;259;53.304;9.816;2023-09-30T11:50:13;7.50;;;4.80;;
545;SDS011;259;53.304;9.816;2023-09-30T11:52:39;7.23;;;4.37;;
545;SDS011;259;53.304;9.816;2023-09-30T11:55:09;4.40;;;3.80;;
545;SDS011;259;53.304;9.816;2023-09-30T11:57:37;4.87;;;4.40;;
545;SDS011;259;53.304;9.816;2023-09-30T12:00:03;7.60;;;4.87;;
545;SDS011;259;53.304;9.816;2023-09-30T12:02:38;6.70;;;4.30;;
545;SDS011;259;53.304;9.816;2023-09-30T12:05:05;4.70;;;4.30;;
545;SDS011;259;53.304;9.816;2023-09-30T12:07:36;3.80;;;3.40;;
545;SDS011;259;53.304;9.816;2023-09-30T12:10:06;5.20;;;4.10;;
545;SDS011;259;53.304;9.816;2023-09-30T12:12:32;4.83;;;4.33;;
545;SDS011;259;53.304;9.816;2023-09-30T12:14:58;4.43;;;3.93;;
545;SDS011;259;53.304;9.816;2023-09-30T12:17:24;4.40;;;3.90;;
545;SDS011;259;53.304;9.816;2023-09-30T12:19:50;4.00;;;3.60;;
545;SDS011;259;53.304;9.816;2023-09-30T12:22:16;3.73;;;3.43;;
545;SDS011;259;53.304;9.816;2023-09-30T12:24:42;3.47;;;2.90;;
545;SDS011;259;53.304;9.816;2023-09-30T12:27:09;3.93;;;3.50;;
545;SDS011;259;53.304;9.816;2023-09-30T12:29:36;4.30;;;3.67;;
545;SDS011;259;53.304;9.816;2023-09-30T12:32:03;4.63;;;3.33;;
545;SDS011;259;53.304;9.816;2023-09-30T12:34:30;3.47;;;2.77;;
545;SDS011;259;53.304;9.816;2023-09-30T12:36:57;3.43;;;3.13;;
545;SDS011;259;53.304;9.816;2023-09-30T12:39:24;5.50;;;3.47;;
545;SDS011;259;53.304;9.816;2023-09-30T12:41:50;4.10;;;3.63;;
545;SDS011;259;53.304;9.816;2023-09-30T12:44:16;3.27;;;2.40;;
545;SDS011;259;53.304;9.816;2023-09-30T12:46:42;2.97;;;2.53;;
545;SDS011;259;53.304;9.816;2023-09-30T12:49:08;4.10;;;2.77;;
545;SDS011;259;53.304;9.816;2023-09-30T12:51:34;5.03;;;3.30;;
545;SDS011;259;53.304;9.816;2023-09-30T12:54:04;2.83;;;2.60;;
545;SDS011;259;53.304;9.816;2023-09-30T12:56:30;5.40;;;3.30;;
545;SDS011;259;53.304;9.816;2023-09-30T12:58:56;4.73;;;2.63;;
545;SDS011;259;53.304;9.816;2023-09-30T13:01:24;3.53;;;2.73;;
545;SDS011;259;53.304;9.816;2023-09-30T13:03:50;4.33;;;3.13;;
545;SDS011;259;53.304;9.816;2023-09-30T13:06:16;2.90;;;2.70;;
545;SDS011;259;53.304;9.816;2023-09-30T13:08:42;2.73;;;2.43;;
545;SDS011;259;53.304;9.816;2023-09-30T13:11:08;3.27;;;2.90;;
545;SDS011;259;53.304;9.816;2023-09-30T13:13:36;3.53;;;2.47;;
545;SDS011;259;53.304;9.816;2023-09-30T13:16:02;4.60;;;2.40;;
545;SDS011;259;53.304;9.816;2023-09-30T13:18:34;2.23;;;2.00;;
545;SDS011;259;53.304;9.816;2023-09-30T13:21:01;2.93;;;2.17;;
545;SDS011;259;53.304;9.816;2023-09-30T13:23:27;4.53;;;2.50;;
545;SDS011;259;53.304;9.816;2023-09-30T13:25:55;3.20;;;2.20;;
545;SDS011;259;53.304;9.816;2023-09-30T13:28:21;2.37;;;1.90;;
545;SDS011;259;53.304;9.816;2023-09-30T13:30:46;2.87;;;2.50;;
545;SDS011;259;53.304;9.816;2023-09-30T13:33:13;3.50;;;2.03;;
545;SDS011;259;53.304;9.816;2023-09-30T13:35:38;2.40;;;1.80;;
545;SDS011;259;53.304;9.816;2023-09-30T13:38:04;3.37;;;1.90;;
545;SDS011;259;53.304;9.816;2023-09-30T13:40:30;2.40;;;2.20;;
545;SDS011;259;53.304;9.816;2023-09-30T13:42:56;2.70;;;1.80;;
545;SDS011;259;53.304;9.816;2023-09-30T13:45:24;2.90;;;2.13;;
545;SDS011;259;53.304;9.816;2023-09-30T13:47:52;3.13;;;1.90;;
545;SDS011;259;53.304;9.816;2023-09-30T13:50:17;2.50;;;2.30;;
545;SDS011;259;53.304;9.816;2023-09-30T13:52:43;1.93;;;1.83;;
545;SDS011;259;53.304;9.816;2023-09-30T13:55:09;2.90;;;1.90;;
545;SDS011;259;53.304;9.816;2023-09-30T13:57:34;2.53;;;1.90;;
545;SDS011;259;53.304;9.816;2023-09-30T14:00:00;2.30;;;2.10;;
545;SDS011;259;53.304;9.816;2023-09-30T14:02:31;3.43;;;2.30;;
545;SDS011;259;53.304;9.816;2023-09-30T14:04:57;2.23;;;2.03;;
545;SDS011;259;53.304;9.816;2023-09-30T14:07:23;3.17;;;1.90;;
545;SDS011;259;53.304;9.816;2023-09-30T14:09:48;4.93;;;2.03;;
545;SDS011;259;53.304;9.816;2023-09-30T14:12:14;3.13;;;2.17;;
545;SDS011;259;53.304;9.816;2023-09-30T14:14:40;2.93;;;2.27;;
545;SDS011;259;53.304;9.816;2023-09-30T14:17:05;4.37;;;2.20;;
545;SDS011;259;53.304;9.816;2023-09-30T14:19:39;3.33;;;1.83;;
545;SDS011;259;53.304;9.816;2023-09-30T14:22:06;2.80;;;1.90;;
545;SDS011;259;53.304;9.816;2023-09-30T14:24:33;1.90;;;1.80;;
545;SDS011;259;53.304;9.816;2023-09-30T14:27:00;3.10;;;1.87;;
545;SDS011;259;53.304;9.816;2023-09-30T14:29:28;1.73;;;1.57;;
545;SDS011;259;53.304;9.816;2023-09-30T14:31:55;3.47;;;1.73;;
545;SDS011;259;53.304;9.816;2023-09-30T14:34:21;3.27;;;2.13;;
545;SDS011;259;53.304;9.816;2023-09-30T14:36:47;6.10;;;2.23;;
545;SDS011;259;53.304;9.816;2023-09-30T14:39:13;3.00;;;1.60;;
545;SDS011;259;53.304;9.816;2023-09-30T14:41:41;2.30;;;1.60;;
545;SDS011;259;53.304;9.816;2023-09-30T14:44:11;3.57;;;1.80;;
545;SDS011;259;53.304;9.816;2023-09-30T14:46:37;4.10;;;1.43;;
545;SDS011;259;53.304;9.816;2023-09-30T14:49:04;1.93;;;1.60;;
545;SDS011;259;53.304;9.816;2023-09-30T14:51:33;2.90;;;1.93;;
545;SDS011;259;53.304;9.816;2023-09-30T14:54:00;3.17;;;2.20;;
545;SDS011;259;53.304;9.816;2023-09-30T14:56:26;1.97;;;1.40;;
545;SDS011;259;53.304;9.816;2023-09-30T14:58:52;2.87;;;1.80;;
545;SDS011;259;53.304;9.816;2023-09-30T15:01:18;2.63;;;1.73;;
545;SDS011;259;53.304;9.816;2023-09-30T15:03:45;2.40;;;1.73;;
545;SDS011;259;53.304;9.816;2023-09-30T15:06:10;4.30;;;1.83;;
545;SDS011;259;53.304;9.816;2023-09-30T15:08:36;3.60;;;2.00;;
545;SDS011;259;53.304;9.816;2023-09-30T15:11:02;3.30;;;1.60;;
545;SDS011;259;53.304;9.816;2023-09-30T15:13:28;2.47;;;1.80;;
545;SDS011;259;53.304;9.816;2023-09-30T15:15:54;2.10;;;1.60;;
545;SDS011;259;53.304;9.816;2023-09-30T15:18:20;5.80;;;1.70;;
545;SDS011;259;53.304;9.816;2023-09-30T15:20:48;5.47;;;1.93;;
545;SDS011;259;53.304;9.816;2023-09-30T15:23:14;3.77;;;2.30;;
545;SDS011;259;53.304;9.816;2023-09-30T15:25:41;2.17;;;1.43;;
545;SDS011;259;53.304;9.816;2023-09-30T15:28:10;5.20;;;2.40;;
545;SDS011;259;53.304;9.816;2023-09-30T15:30:38;3.90;;;1.90;;
545;SDS011;259;53.304;9.816;2023-09-30T15:33:04;7.60;;;1.83;;
545;SDS011;259;53.304;9.816;2023-09-30T15:35:31;4.57;;;1.80;;
545;SDS011;259;53.304;9.816;2023-09-30T15:37:56;6.27;;;2.13;;
545;SDS011;259;53.304;9.816;2023-09-30T15:40:25;11.77;;;2.67;;
545;SDS011;259;53.304;9.816;2023-09-30T15:42:51;8.77;;;2.20;;
545;SDS011;259;53.304;9.816;2023-09-30T15:45:17;5.70;;;2.63;;
545;SDS011;259;53.304;9.816;2023-09-30T15:47:43;8.90;;;3.20;;
545;SDS011;259;53.304;9.816;2023-09-30T15:50:09;11.30;;;2.63;;
545;SDS011;259;53.304;9.816;2023-09-30T15:52:36;11.50;;;2.50;;
545;SDS011;259;53.304;9.816;2023-09-30T15:55:02;6.60;;;2.50;;
545;SDS011;259;53.304;9.816;2023-09-30T15:57:28;7.50;;;2.63;;
545;SDS011;259;53.304;9.816;2023-09-30T15:59:54;8.80;;;2.93;;
545;SDS011;259;53.304;9.816;2023-09-30T16:02:20;9.40;;;2.80;;
545;SDS011;259;53.304;9.816;2023-09-30T16:04:45;12.17;;;3.03;;
545;SDS011;259;53.304;9.816;2023-09-30T16:07:11;11.00;;;2.20;;
545;SDS011;259;53.304;9.816;2023-09-30T16:09:37;7.83;;;2.03;;
545;SDS011;259;53.304;9.816;2023-09-30T16:12:03;4.00;;;2.10;;
545;SDS011;259;53.304;9.816;2023-09-30T16:14:30;5.00;;;2.40;;